sensor_id;sensor_type;location;lat;lon;timestamp;P1;durP1;ratioP1;P2;durP2;ratioP2
13641;SDS011;6894;52.196;9.904;2024-01-15T00:00:10;14.03;;;10.37;;
13641;SDS011;6894;52.196;9.904;2024-01-15T00:02:37;14.40;;;10.63;;
13641;SDS011;6894;52.196;9.904;2024-01-15T00:05:06;12.87;;;10.50;;
13641;SDS011;6894;52.196;9.904;2024-01-15T00:07:33;12.10;;;9.13;;
13641;SDS011;6894;52.196;9.904;2024-01-15T00:09:59;11.97;;;10.00;;
13641;SDS011;6894;52.196;9.904;2024-01-15T00:12:26;13.30;;;10.03;;
13641;SDS011;6894;52.196;9.904;2024-01-15T00:14:53;12.07;;;9.20;;
13641;SDS011;6894;52.196;9.904;2024-01-15T00:17:20;12.10;;;9.37;;
13641;SDS011;6894;52.196;9.904;2024-01-15T00:19:46;10.53;;;8.40;;
13641;SDS011;6894;52.196;9.904;2024-01-15T00:22:15;9.63;;;8.63;;
13641;SDS011;6894;52.196;9.904;2024-01-15T00:24:41;10.17;;;8.43;;
13641;SDS011;6894;52.196;9.904;2024-01-15T00:27:08;9.83;;;7.00;;
13641;SDS011;6894;52.196;9.904;2024-01-15T00:29:35;8.87;;;7.10;;
13641;SDS011;6894;52.196;9.904;2024-01-15T00:32:01;8.87;;;7.73;;
13641;SDS011;6894;52.196;9.904;2024-01-15T00:34:28;10.37;;;7.87;;
13641;SDS011;6894;52.196;9.904;2024-01-15T00:36:55;8.50;;;7.10;;
13641;SDS011;6894;52.196;9.904;2024-01-15T00:39:23;7.50;;;5.57;;
13641;SDS011;6894;52.196;9.904;2024-01-15T00:41:50;7.83;;;6.10;;
13641;SDS011;6894;52.196;9.904;2024-01-15T00:44:17;6.73;;;6.03;;
13641;SDS011;6894;52.196;9.904;2024-01-15T00:46:43;6.60;;;5.77;;
13641;SDS011;6894;52.196;9.904;2024-01-15T00:49:10;7.00;;;5.57;;
13641;SDS011;6894;52.196;9.904;2024-01-15T00:51:36;7.07;;;5.83;;
13641;SDS011;6894;52.196;9.904;2024-01-15T00:54:03;8.23;;;6.10;;
13641;SDS011;6894;52.196;9.904;2024-01-15T00:56:32;7.17;;;6.20;;
13641;SDS011;6894;52.196;9.904;2024-01-15T00:58:59;6.80;;;5.40;;
13641;SDS011;6894;52.196;9.904;2024-01-15T01:01:26;6.83;;;4.90;;
13641;SDS011;6894;52.196;9.904;2024-01-15T01:03:53;7.27;;;5.87;;
13641;SDS011;6894;52.196;9.904;2024-01-15T01:06:19;7.03;;;5.03;;
13641;SDS011;6894;52.196;9.904;2024-01-15T01:08:46;7.30;;;6.07;;
13641;SDS011;6894;52.196;9.904;2024-01-15T01:11:13;7.90;;;5.83;;
13641;SDS011;6894;52.196;9.904;2024-01-15T01:13:41;6.73;;;5.53;;
13641;SDS011;6894;52.196;9.904;2024-01-15T01:16:08;5.33;;;4.77;;
13641;SDS011;6894;52.196;9.904;2024-01-15T01:18:34;6.33;;;4.63;;
13641;SDS011;6894;52.196;9.904;2024-01-15T01:21:01;9.33;;;5.20;;
13641;SDS011;6894;52.196;9.904;2024-01-15T01:23:28;8.33;;;4.30;;
13641;SDS011;6894;52.196;9.904;2024-01-15T01:25:54;6.80;;;4.00;;
13641;SDS011;6894;52.196;9.904;2024-01-15T01:28:21;9.10;;;4.23;;
13641;SDS011;6894;52.196;9.904;2024-01-15T01:30:49;7.73;;;4.50;;
13641;SDS011;6894;52.196;9.904;2024-01-15T01:33:16;9.90;;;3.70;;
13641;SDS011;6894;52.196;9.904;2024-01-15T01:35:43;8.17;;;4.27;;
13641;SDS011;6894;52.196;9.904;2024-01-15T01:38:10;6.50;;;3.90;;
13641;SDS011;6894;52.196;9.904;2024-01-15T01:40:36;7.83;;;3.77;;
13641;SDS011;6894;52.196;9.904;2024-01-15T01:43:04;7.00;;;3.70;;
13641;SDS011;6894;52.196;9.904;2024-01-15T01:45:30;6.97;;;4.40;;
13641;SDS011;6894;52.196;9.904;2024-01-15T01:47:59;5.47;;;3.47;;
13641;SDS011;6894;52.196;9.904;2024-01-15T01:50:26;7.30;;;3.63;;
13641;SDS011;6894;52.196;9.904;2024-01-15T01:52:53;8.23;;;3.90;;
13641;SDS011;6894;52.196;9.904;2024-01-15T01:55:21;9.93;;;4.17;;
13641;SDS011;6894;52.196;9.904;2024-01-15T01:57:52;6.00;;;2.93;;
13641;SDS011;6894;52.196;9.904;2024-01-15T02:00:20;7.87;;;3.27;;
13641;SDS011;6894;52.196;9.904;2024-01-15T02:02:47;6.87;;;4.40;;
13641;SDS011;6894;52.196;9.904;2024-01-15T02:05:15;6.37;;;2.93;;
13641;SDS011;6894;52.196;9.904;2024-01-15T02:07:45;4.80;;;2.50;;
13641;SDS011;6894;52.196;9.904;2024-01-15T02:10:12;6.73;;;2.23;;
13641;SDS011;6894;52.196;9.904;2024-01-15T02:12:39;4.50;;;2.83;;
13641;SDS011;6894;52.196;9.904;2024-01-15T02:15:06;6.87;;;3.40;;
13641;SDS011;6894;52.196;9.904;2024-01-15T02:17:33;5.73;;;3.20;;
13641;SDS011;6894;52.196;9.904;2024-01-15T02:20:00;10.10;;;2.60;;
13641;SDS011;6894;52.196;9.904;2024-01-15T02:22:28;11.33;;;2.30;;
13641;SDS011;6894;52.196;9.904;2024-01-15T02:24:56;5.97;;;2.57;;
13641;SDS011;6894;52.196;9.904;2024-01-15T02:27:23;8.93;;;3.60;;
13641;SDS011;6894;52.196;9.904;2024-01-15T02:29:49;8.63;;;2.57;;
13641;SDS011;6894;52.196;9.904;2024-01-15T02:32:17;7.27;;;2.53;;
13641;SDS011;6894;52.196;9.904;2024-01-15T02:34:44;8.63;;;2.50;;
13641;SDS011;6894;52.196;9.904;2024-01-15T02:37:10;5.00;;;2.50;;
13641;SDS011;6894;52.196;9.904;2024-01-15T02:39:37;7.00;;;2.67;;
13641;SDS011;6894;52.196;9.904;2024-01-15T02:42:05;6.90;;;2.90;;
13641;SDS011;6894;52.196;9.904;2024-01-15T02:44:32;6.73;;;2.70;;
13641;SDS011;6894;52.196;9.904;2024-01-15T02:46:59;9.43;;;2.67;;
13641;SDS011;6894;52.196;9.904;2024-01-15T02:49:25;7.30;;;2.07;;
13641;SDS011;6894;52.196;9.904;2024-01-15T02:51:52;6.40;;;2.27;;
13641;SDS011;6894;52.196;9.904;2024-01-15T02:54:19;4.67;;;2.10;;
13641;SDS011;6894;52.196;9.904;2024-01-15T02:56:45;4.20;;;1.70;;
13641;SDS011;6894;52.196;9.904;2024-01-15T02:59:13;6.17;;;2.40;;
13641;SDS011;6894;52.196;9.904;2024-01-15T03:01:40;7.77;;;2.40;;
13641;SDS011;6894;52.196;9.904;2024-01-15T03:04:07;9.23;;;2.70;;
13641;SDS011;6894;52.196;9.904;2024-01-15T03:06:33;7.33;;;1.87;;
13641;SDS011;6894;52.196;9.904;2024-01-15T03:09:00;5.37;;;1.70;;
13641;SDS011;6894;52.196;9.904;2024-01-15T03:11:28;7.30;;;2.57;;
13641;SDS011;6894;52.196;9.904;2024-01-15T03:13:55;6.67;;;2.17;;
13641;SDS011;6894;52.196;9.904;2024-01-15T03:16:23;9.07;;;2.40;;
13641;SDS011;6894;52.196;9.904;2024-01-15T03:18:50;4.50;;;1.50;;
13641;SDS011;6894;52.196;9.904;2024-01-15T03:21:16;8.20;;;2.47;;
13641;SDS011;6894;52.196;9.904;2024-01-15T03:23:43;4.07;;;1.73;;
13641;SDS011;6894;52.196;9.904;2024-01-15T03:26:10;5.33;;;1.73;;
13641;SDS011;6894;52.196;9.904;2024-01-15T03:28:36;7.03;;;2.30;;
13641;SDS011;6894;52.196;9.904;2024-01-15T03:31:03;4.33;;;1.33;;
13641;SDS011;6894;52.196;9.904;2024-01-15T03:33:31;7.73;;;2.00;;
13641;SDS011;6894;52.196;9.904;2024-01-15T03:35:58;4.83;;;1.50;;
13641;SDS011;6894;52.196;9.904;2024-01-15T03:38:27;4.83;;;2.13;;
13641;SDS011;6894;52.196;9.904;2024-01-15T03:40:54;7.50;;;1.70;;
13641;SDS011;6894;52.196;9.904;2024-01-15T03:43:20;5.03;;;1.80;;
13641;SDS011;6894;52.196;9.904;2024-01-15T03:45:47;4.70;;;1.97;;
13641;SDS011;6894;52.196;9.904;2024-01-15T03:48:14;8.23;;;1.83;;
13641;SDS011;6894;52.196;9.904;2024-01-15T03:50:42;5.63;;;1.90;;
13641;SDS011;6894;52.196;9.904;2024-01-15T03:53:09;5.43;;;2.00;;
13641;SDS011;6894;52.196;9.904;2024-01-15T03:55:35;6.57;;;1.97;;
13641;SDS011;6894;52.196;9.904;2024-01-15T03:58:02;5.13;;;1.80;;
13641;SDS011;6894;52.196;9.904;2024-01-15T04:00:29;5.97;;;1.80;;
13641;SDS011;6894;52.196;9.904;2024-01-15T04:02:56;6.83;;;1.53;;
13641;SDS011;6894;52.196;9.904;2024-01-15T04:05:22;6.30;;;1.90;;
13641;SDS011;6894;52.196;9.904;2024-01-15T04:07:50;4.40;;;1.70;;
13641;SDS011;6894;52.196;9.904;2024-01-15T04:10:17;6.10;;;1.60;;
13641;SDS011;6894;52.196;9.904;2024-01-15T04:12:44;7.23;;;1.53;;
13641;SDS011;6894;52.196;9.904;2024-01-15T04:15:11;4.47;;;1.37;;
13641;SDS011;6894;52.196;9.904;2024-01-15T04:17:38;6.00;;;1.63;;
13641;SDS011;6894;52.196;9.904;2024-01-15T04:20:05;6.13;;;1.67;;
13641;SDS011;6894;52.196;9.904;2024-01-15T04:22:33;4.43;;;1.60;;
13641;SDS011;6894;52.196;9.904;2024-01-15T04:25:01;2.60;;;1.03;;
13641;SDS011;6894;52.196;9.904;2024-01-15T04:27:28;8.90;;;1.83;;
13641;SDS011;6894;52.196;9.904;2024-01-15T04:29:55;8.87;;;1.80;;
13641;SDS011;6894;52.196;9.904;2024-01-15T04:32:22;7.57;;;1.43;;
13641;SDS011;6894;52.196;9.904;2024-01-15T04:34:48;4.93;;;1.40;;
13641;SDS011;6894;52.196;9.904;2024-01-15T04:37:15;3.53;;;1.27;;
13641;SDS011;6894;52.196;9.904;2024-01-15T04:41:34;6.57;;;1.60;;
13641;SDS011;6894;52.196;9.904;2024-01-15T04:44:01;7.27;;;1.50;;
13641;SDS011;6894;52.196;9.904;2024-01-15T04:46:29;6.53;;;1.40;;
13641;SDS011;6894;52.196;9.904;2024-01-15T04:48:55;3.27;;;1.30;;
13641;SDS011;6894;52.196;9.904;2024-01-15T04:51:21;6.47;;;1.80;;
13641;SDS011;6894;52.196;9.904;2024-01-15T04:53:48;7.17;;;1.80;;
13641;SDS011;6894;52.196;9.904;2024-01-15T04:56:14;3.80;;;1.23;;
13641;SDS011;6894;52.196;9.904;2024-01-15T04:58:43;4.93;;;1.53;;
13641;SDS011;6894;52.196;9.904;2024-01-15T05:01:09;9.50;;;1.57;;
13641;SDS011;6894;52.196;9.904;2024-01-15T05:03:36;5.33;;;1.80;;
13641;SDS011;6894;52.196;9.904;2024-01-15T05:06:04;7.80;;;1.80;;
13641;SDS011;6894;52.196;9.904;2024-01-15T05:08:31;8.47;;;2.00;;
13641;SDS011;6894;52.196;9.904;2024-01-15T05:10:58;5.03;;;1.63;;
13641;SDS011;6894;52.196;9.904;2024-01-15T05:13:24;7.63;;;1.77;;
13641;SDS011;6894;52.196;9.904;2024-01-15T05:15:52;5.97;;;1.80;;
13641;SDS011;6894;52.196;9.904;2024-01-15T05:18:19;2.43;;;1.53;;
13641;SDS011;6894;52.196;9.904;2024-01-15T05:20:46;4.47;;;1.53;;
13641;SDS011;6894;52.196;9.904;2024-01-15T05:23:13;4.57;;;1.33;;
13641;SDS011;6894;52.196;9.904;2024-01-15T05:25:39;3.93;;;1.87;;
13641;SDS011;6894;52.196;9.904;2024-01-15T05:28:07;6.60;;;1.90;;
13641;SDS011;6894;52.196;9.904;2024-01-15T05:30:33;9.47;;;1.60;;
13641;SDS011;6894;52.196;9.904;2024-01-15T05:33:01;5.17;;;2.10;;
13641;SDS011;6894;52.196;9.904;2024-01-15T05:35:28;5.43;;;1.83;;
13641;SDS011;6894;52.196;9.904;2024-01-15T05:37:55;2.80;;;2.00;;
13641;SDS011;6894;52.196;9.904;2024-01-15T05:40:22;13.40;;;2.30;;
13641;SDS011;6894;52.196;9.904;2024-01-15T05:42:49;6.97;;;2.63;;
13641;SDS011;6894;52.196;9.904;2024-01-15T05:45:16;4.80;;;2.33;;
13641;SDS011;6894;52.196;9.904;2024-01-15T05:47:42;6.37;;;2.40;;
13641;SDS011;6894;52.196;9.904;2024-01-15T05:50:11;7.83;;;2.43;;
13641;SDS011;6894;52.196;9.904;2024-01-15T05:52:37;7.20;;;3.30;;
13641;SDS011;6894;52.196;9.904;2024-01-15T05:55:04;6.13;;;2.60;;
13641;SDS011;6894;52.196;9.904;2024-01-15T05:57:31;7.37;;;2.87;;
13641;SDS011;6894;52.196;9.904;2024-01-15T05:59:58;5.77;;;2.10;;
13641;SDS011;6894;52.196;9.904;2024-01-15T06:02:26;4.23;;;2.00;;
13641;SDS011;6894;52.196;9.904;2024-01-15T06:04:52;7.93;;;2.87;;
13641;SDS011;6894;52.196;9.904;2024-01-15T06:07:20;9.80;;;2.57;;
13641;SDS011;6894;52.196;9.904;2024-01-15T06:09:49;5.43;;;2.17;;
13641;SDS011;6894;52.196;9.904;2024-01-15T06:12:15;15.53;;;2.80;;
13641;SDS011;6894;52.196;9.904;2024-01-15T06:14:42;7.60;;;2.73;;
13641;SDS011;6894;52.196;9.904;2024-01-15T06:17:09;6.73;;;2.27;;
13641;SDS011;6894;52.196;9.904;2024-01-15T06:19:36;4.83;;;1.60;;
13641;SDS011;6894;52.196;9.904;2024-01-15T06:22:02;6.03;;;2.13;;
13641;SDS011;6894;52.196;9.904;2024-01-15T06:24:31;6.53;;;2.00;;
13641;SDS011;6894;52.196;9.904;2024-01-15T06:26:57;6.40;;;2.50;;
13641;SDS011;6894;52.196;9.904;2024-01-15T06:29:25;4.77;;;2.00;;
13641;SDS011;6894;52.196;9.904;2024-01-15T06:31:52;3.90;;;2.23;;
13641;SDS011;6894;52.196;9.904;2024-01-15T06:34:19;3.27;;;2.03;;
13641;SDS011;6894;52.196;9.904;2024-01-15T06:36:46;6.43;;;2.23;;
13641;SDS011;6894;52.196;9.904;2024-01-15T06:39:12;7.17;;;2.73;;
13641;SDS011;6894;52.196;9.904;2024-01-15T06:41:41;7.37;;;1.97;;
13641;SDS011;6894;52.196;9.904;2024-01-15T06:44:09;5.27;;;2.03;;
13641;SDS011;6894;52.196;9.904;2024-01-15T06:46:36;5.83;;;2.67;;
13641;SDS011;6894;52.196;9.904;2024-01-15T06:49:07;4.33;;;2.33;;
13641;SDS011;6894;52.196;9.904;2024-01-15T06:51:34;6.63;;;2.50;;
13641;SDS011;6894;52.196;9.904;2024-01-15T06:54:01;10.07;;;1.83;;
13641;SDS011;6894;52.196;9.904;2024-01-15T06:56:28;6.93;;;1.70;;
13641;SDS011;6894;52.196;9.904;2024-01-15T06:58:56;5.60;;;1.97;;
13641;SDS011;6894;52.196;9.904;2024-01-15T07:01:22;9.03;;;2.63;;
13641;SDS011;6894;52.196;9.904;2024-01-15T07:03:50;5.63;;;2.30;;
13641;SDS011;6894;52.196;9.904;2024-01-15T07:06:16;5.97;;;2.87;;
13641;SDS011;6894;52.196;9.904;2024-01-15T07:08:43;4.50;;;1.83;;
13641;SDS011;6894;52.196;9.904;2024-01-15T07:11:10;5.87;;;1.80;;
13641;SDS011;6894;52.196;9.904;2024-01-15T07:13:36;7.20;;;2.20;;
13641;SDS011;6894;52.196;9.904;2024-01-15T07:16:05;7.33;;;2.33;;
13641;SDS011;6894;52.196;9.904;2024-01-15T07:18:32;3.03;;;2.07;;
13641;SDS011;6894;52.196;9.904;2024-01-15T07:20:59;5.80;;;2.30;;
13641;SDS011;6894;52.196;9.904;2024-01-15T07:23:26;6.40;;;2.10;;
13641;SDS011;6894;52.196;9.904;2024-01-15T07:25:53;8.57;;;4.23;;
13641;SDS011;6894;52.196;9.904;2024-01-15T07:28:20;3.87;;;2.23;;
13641;SDS011;6894;52.196;9.904;2024-01-15T07:30:46;3.20;;;1.70;;
13641;SDS011;6894;52.196;9.904;2024-01-15T07:33:14;3.67;;;1.93;;
13641;SDS011;6894;52.196;9.904;2024-01-15T07:35:41;5.77;;;1.87;;
13641;SDS011;6894;52.196;9.904;2024-01-15T07:38:08;6.27;;;2.30;;
13641;SDS011;6894;52.196;9.904;2024-01-15T07:40:36;4.73;;;2.20;;
13641;SDS011;6894;52.196;9.904;2024-01-15T07:43:03;4.77;;;1.90;;
13641;SDS011;6894;52.196;9.904;2024-01-15T07:45:30;3.90;;;1.87;;
13641;SDS011;6894;52.196;9.904;2024-01-15T07:47:57;5.30;;;2.53;;
13641;SDS011;6894;52.196;9.904;2024-01-15T07:50:25;5.40;;;2.47;;
13641;SDS011;6894;52.196;9.904;2024-01-15T07:52:52;3.77;;;1.90;;
13641;SDS011;6894;52.196;9.904;2024-01-15T07:55:19;5.57;;;2.67;;
13641;SDS011;6894;52.196;9.904;2024-01-15T07:57:46;4.53;;;1.67;;
13641;SDS011;6894;52.196;9.904;2024-01-15T08:00:13;3.07;;;1.87;;
13641;SDS011;6894;52.196;9.904;2024-01-15T08:02:40;4.57;;;1.97;;
13641;SDS011;6894;52.196;9.904;2024-01-15T08:05:07;3.83;;;2.17;;
13641;SDS011;6894;52.196;9.904;2024-01-15T08:07:35;4.20;;;2.17;;
13641;SDS011;6894;52.196;9.904;2024-01-15T08:10:01;3.87;;;1.73;;
13641;SDS011;6894;52.196;9.904;2024-01-15T08:12:28;5.33;;;1.80;;
13641;SDS011;6894;52.196;9.904;2024-01-15T08:14:55;6.40;;;1.90;;
13641;SDS011;6894;52.196;9.904;2024-01-15T08:17:22;4.00;;;1.63;;
13641;SDS011;6894;52.196;9.904;2024-01-15T08:19:53;4.10;;;1.37;;
13641;SDS011;6894;52.196;9.904;2024-01-15T08:22:20;2.83;;;1.37;;
13641;SDS011;6894;52.196;9.904;2024-01-15T08:24:48;2.87;;;1.80;;
13641;SDS011;6894;52.196;9.904;2024-01-15T08:27:14;3.07;;;1.70;;
13641;SDS011;6894;52.196;9.904;2024-01-15T08:29:41;4.53;;;1.30;;
13641;SDS011;6894;52.196;9.904;2024-01-15T08:32:08;3.30;;;1.60;;
13641;SDS011;6894;52.196;9.904;2024-01-15T08:34:39;2.47;;;1.53;;
13641;SDS011;6894;52.196;9.904;2024-01-15T08:37:05;2.47;;;1.57;;
13641;SDS011;6894;52.196;9.904;2024-01-15T08:39:32;4.60;;;1.83;;
13641;SDS011;6894;52.196;9.904;2024-01-15T08:42:00;4.47;;;1.87;;
13641;SDS011;6894;52.196;9.904;2024-01-15T08:44:27;3.27;;;1.40;;
13641;SDS011;6894;52.196;9.904;2024-01-15T08:46:53;3.10;;;1.43;;
13641;SDS011;6894;52.196;9.904;2024-01-15T08:49:20;2.90;;;1.07;;
13641;SDS011;6894;52.196;9.904;2024-01-15T08:51:47;3.63;;;1.47;;
13641;SDS011;6894;52.196;9.904;2024-01-15T08:54:14;2.97;;;1.70;;
13641;SDS011;6894;52.196;9.904;2024-01-15T08:56:41;5.07;;;2.13;;
13641;SDS011;6894;52.196;9.904;2024-01-15T08:59:09;5.60;;;2.03;;
13641;SDS011;6894;52.196;9.904;2024-01-15T09:01:37;4.70;;;2.00;;
13641;SDS011;6894;52.196;9.904;2024-01-15T09:04:04;5.10;;;1.90;;
13641;SDS011;6894;52.196;9.904;2024-01-15T09:06:31;3.70;;;1.60;;
13641;SDS011;6894;52.196;9.904;2024-01-15T09:08:58;5.77;;;2.60;;
13641;SDS011;6894;52.196;9.904;2024-01-15T09:11:25;7.03;;;1.67;;
13641;SDS011;6894;52.196;9.904;2024-01-15T09:13:52;6.17;;;2.77;;
13641;SDS011;6894;52.196;9.904;2024-01-15T09:16:20;9.37;;;1.37;;
13641;SDS011;6894;52.196;9.904;2024-01-15T09:18:47;5.03;;;1.50;;
13641;SDS011;6894;52.196;9.904;2024-01-15T09:21:13;3.63;;;1.40;;
13641;SDS011;6894;52.196;9.904;2024-01-15T09:23:40;4.47;;;1.53;;
13641;SDS011;6894;52.196;9.904;2024-01-15T09:26:07;3.40;;;1.40;;
13641;SDS011;6894;52.196;9.904;2024-01-15T09:28:34;4.67;;;1.50;;
13641;SDS011;6894;52.196;9.904;2024-01-15T09:31:01;5.27;;;1.40;;
13641;SDS011;6894;52.196;9.904;2024-01-15T09:33:30;6.10;;;1.87;;
13641;SDS011;6894;52.196;9.904;2024-01-15T09:35:56;4.43;;;2.63;;
13641;SDS011;6894;52.196;9.904;2024-01-15T09:38:23;2.77;;;1.20;;
13641;SDS011;6894;52.196;9.904;2024-01-15T09:40:50;4.57;;;1.33;;
13641;SDS011;6894;52.196;9.904;2024-01-15T09:43:17;5.40;;;1.43;;
13641;SDS011;6894;52.196;9.904;2024-01-15T09:45:45;3.63;;;1.77;;
13641;SDS011;6894;52.196;9.904;2024-01-15T09:48:12;5.27;;;1.60;;
13641;SDS011;6894;52.196;9.904;2024-01-15T09:50:40;3.00;;;1.53;;
13641;SDS011;6894;52.196;9.904;2024-01-15T09:53:07;10.73;;;3.30;;
13641;SDS011;6894;52.196;9.904;2024-01-15T09:55:36;1.93;;;1.50;;
13641;SDS011;6894;52.196;9.904;2024-01-15T09:58:04;4.20;;;2.17;;
13641;SDS011;6894;52.196;9.904;2024-01-15T10:00:31;8.20;;;1.57;;
13641;SDS011;6894;52.196;9.904;2024-01-15T10:03:01;4.70;;;1.77;;
13641;SDS011;6894;52.196;9.904;2024-01-15T10:05:29;5.33;;;1.30;;
13641;SDS011;6894;52.196;9.904;2024-01-15T10:07:57;2.93;;;1.27;;
13641;SDS011;6894;52.196;9.904;2024-01-15T10:10:26;6.93;;;1.60;;
13641;SDS011;6894;52.196;9.904;2024-01-15T10:12:53;5.67;;;1.10;;
13641;SDS011;6894;52.196;9.904;2024-01-15T10:15:22;5.77;;;1.40;;
13641;SDS011;6894;52.196;9.904;2024-01-15T10:17:51;3.20;;;1.10;;
13641;SDS011;6894;52.196;9.904;2024-01-15T10:20:18;4.87;;;1.30;;
13641;SDS011;6894;52.196;9.904;2024-01-15T10:22:47;2.50;;;1.30;;
13641;SDS011;6894;52.196;9.904;2024-01-15T10:25:15;3.83;;;2.03;;
13641;SDS011;6894;52.196;9.904;2024-01-15T10:27:47;2.87;;;1.10;;
13641;SDS011;6894;52.196;9.904;2024-01-15T10:30:27;4.00;;;2.00;;
13641;SDS011;6894;52.196;9.904;2024-01-15T10:32:57;2.70;;;1.47;;
13641;SDS011;6894;52.196;9.904;2024-01-15T10:35:26;3.40;;;1.47;;
13641;SDS011;6894;52.196;9.904;2024-01-15T10:37:54;4.03;;;1.60;;
13641;SDS011;6894;52.196;9.904;2024-01-15T10:40:22;7.43;;;1.70;;
13641;SDS011;6894;52.196;9.904;2024-01-15T10:42:49;2.10;;;1.20;;
13641;SDS011;6894;52.196;9.904;2024-01-15T10:45:16;2.87;;;1.40;;
13641;SDS011;6894;52.196;9.904;2024-01-15T10:47:43;3.33;;;1.10;;
13641;SDS011;6894;52.196;9.904;2024-01-15T10:50:11;2.40;;;1.00;;
13641;SDS011;6894;52.196;9.904;2024-01-15T10:52:39;3.53;;;1.10;;
13641;SDS011;6894;52.196;9.904;2024-01-15T10:55:07;4.10;;;1.00;;
13641;SDS011;6894;52.196;9.904;2024-01-15T10:57:36;2.83;;;0.80;;
13641;SDS011;6894;52.196;9.904;2024-01-15T11:00:04;3.27;;;1.70;;
13641;SDS011;6894;52.196;9.904;2024-01-15T11:02:31;4.87;;;1.53;;
13641;SDS011;6894;52.196;9.904;2024-01-15T11:05:00;3.70;;;1.30;;
13641;SDS011;6894;52.196;9.904;2024-01-15T11:07:27;2.60;;;1.07;;
13641;SDS011;6894;52.196;9.904;2024-01-15T11:09:56;3.97;;;1.43;;
13641;SDS011;6894;52.196;9.904;2024-01-15T11:12:24;2.47;;;1.00;;
13641;SDS011;6894;52.196;9.904;2024-01-15T11:14:52;2.90;;;1.00;;
13641;SDS011;6894;52.196;9.904;2024-01-15T11:17:31;2.23;;;1.60;;
13641;SDS011;6894;52.196;9.904;2024-01-15T11:20:28;3.17;;;1.10;;
13641;SDS011;6894;52.196;9.904;2024-01-15T11:22:56;4.47;;;1.50;;
13641;SDS011;6894;52.196;9.904;2024-01-15T11:25:24;2.60;;;1.13;;
13641;SDS011;6894;52.196;9.904;2024-01-15T11:28:02;3.57;;;1.37;;
13641;SDS011;6894;52.196;9.904;2024-01-15T11:30:31;3.77;;;1.43;;
13641;SDS011;6894;52.196;9.904;2024-01-15T11:33:01;4.03;;;1.10;;
13641;SDS011;6894;52.196;9.904;2024-01-15T11:38:26;5.90;;;1.70;;
13641;SDS011;6894;52.196;9.904;2024-01-15T11:40:54;3.77;;;1.30;;
13641;SDS011;6894;52.196;9.904;2024-01-15T11:43:21;5.07;;;1.13;;
13641;SDS011;6894;52.196;9.904;2024-01-15T11:45:50;4.80;;;1.40;;
13641;SDS011;6894;52.196;9.904;2024-01-15T11:48:19;1.93;;;1.03;;
13641;SDS011;6894;52.196;9.904;2024-01-15T11:50:49;4.97;;;1.00;;
13641;SDS011;6894;52.196;9.904;2024-01-15T11:53:17;3.23;;;1.57;;
13641;SDS011;6894;52.196;9.904;2024-01-15T11:55:52;4.07;;;1.30;;
13641;SDS011;6894;52.196;9.904;2024-01-15T11:58:24;3.10;;;1.30;;
13641;SDS011;6894;52.196;9.904;2024-01-15T12:00:52;4.10;;;1.40;;
13641;SDS011;6894;52.196;9.904;2024-01-15T12:03:20;3.37;;;1.53;;
13641;SDS011;6894;52.196;9.904;2024-01-15T12:05:47;5.30;;;1.40;;
13641;SDS011;6894;52.196;9.904;2024-01-15T12:08:14;3.50;;;1.37;;
13641;SDS011;6894;52.196;9.904;2024-01-15T12:10:46;3.70;;;1.67;;
13641;SDS011;6894;52.196;9.904;2024-01-15T12:13:14;3.17;;;1.30;;
13641;SDS011;6894;52.196;9.904;2024-01-15T12:15:43;6.33;;;1.67;;
13641;SDS011;6894;52.196;9.904;2024-01-15T12:18:13;4.53;;;1.50;;
13641;SDS011;6894;52.196;9.904;2024-01-15T12:20:40;2.97;;;1.00;;
13641;SDS011;6894;52.196;9.904;2024-01-15T12:23:08;3.00;;;1.40;;
13641;SDS011;6894;52.196;9.904;2024-01-15T12:25:36;3.37;;;1.13;;
13641;SDS011;6894;52.196;9.904;2024-01-15T12:28:03;7.07;;;1.30;;
13641;SDS011;6894;52.196;9.904;2024-01-15T12:30:32;4.17;;;1.27;;
13641;SDS011;6894;52.196;9.904;2024-01-15T12:33:01;4.10;;;1.20;;
13641;SDS011;6894;52.196;9.904;2024-01-15T12:35:30;4.40;;;1.67;;
13641;SDS011;6894;52.196;9.904;2024-01-15T12:37:57;4.63;;;1.70;;
13641;SDS011;6894;52.196;9.904;2024-01-15T12:40:27;5.13;;;1.00;;
13641;SDS011;6894;52.196;9.904;2024-01-15T12:42:54;4.43;;;0.67;;
13641;SDS011;6894;52.196;9.904;2024-01-15T12:45:21;4.07;;;0.97;;
13641;SDS011;6894;52.196;9.904;2024-01-15T12:47:48;3.67;;;2.60;;
13641;SDS011;6894;52.196;9.904;2024-01-15T12:50:16;5.77;;;1.00;;
13641;SDS011;6894;52.196;9.904;2024-01-15T12:52:44;4.13;;;1.10;;
13641;SDS011;6894;52.196;9.904;2024-01-15T12:55:11;3.30;;;1.00;;
13641;SDS011;6894;52.196;9.904;2024-01-15T12:57:38;3.13;;;1.17;;
13641;SDS011;6894;52.196;9.904;2024-01-15T13:00:05;2.97;;;1.00;;
13641;SDS011;6894;52.196;9.904;2024-01-15T13:02:37;3.80;;;1.30;;
13641;SDS011;6894;52.196;9.904;2024-01-15T13:05:04;3.57;;;1.73;;
13641;SDS011;6894;52.196;9.904;2024-01-15T13:07:33;6.57;;;1.30;;
13641;SDS011;6894;52.196;9.904;2024-01-15T13:10:01;6.57;;;1.13;;
13641;SDS011;6894;52.196;9.904;2024-01-15T13:12:28;6.57;;;1.50;;
13641;SDS011;6894;52.196;9.904;2024-01-15T13:14:55;2.97;;;1.13;;
13641;SDS011;6894;52.196;9.904;2024-01-15T13:17:24;7.43;;;1.43;;
13641;SDS011;6894;52.196;9.904;2024-01-15T13:19:50;2.77;;;1.20;;
13641;SDS011;6894;52.196;9.904;2024-01-15T13:22:17;5.77;;;1.20;;
13641;SDS011;6894;52.196;9.904;2024-01-15T13:24:45;3.23;;;1.57;;
13641;SDS011;6894;52.196;9.904;2024-01-15T13:27:13;2.37;;;1.23;;
13641;SDS011;6894;52.196;9.904;2024-01-15T13:29:40;10.30;;;1.43;;
13641;SDS011;6894;52.196;9.904;2024-01-15T13:32:07;6.60;;;1.67;;
13641;SDS011;6894;52.196;9.904;2024-01-15T13:34:35;1.20;;;1.00;;
13641;SDS011;6894;52.196;9.904;2024-01-15T13:37:01;2.97;;;1.20;;
13641;SDS011;6894;52.196;9.904;2024-01-15T13:39:28;8.27;;;1.43;;
13641;SDS011;6894;52.196;9.904;2024-01-15T13:41:58;6.47;;;2.00;;
13641;SDS011;6894;52.196;9.904;2024-01-15T13:44:26;4.33;;;1.43;;
13641;SDS011;6894;52.196;9.904;2024-01-15T13:46:53;4.50;;;1.10;;
13641;SDS011;6894;52.196;9.904;2024-01-15T13:49:22;2.47;;;0.80;;
13641;SDS011;6894;52.196;9.904;2024-01-15T13:51:49;2.40;;;1.33;;
13641;SDS011;6894;52.196;9.904;2024-01-15T13:54:16;3.73;;;1.40;;
13641;SDS011;6894;52.196;9.904;2024-01-15T13:56:42;3.67;;;1.10;;
13641;SDS011;6894;52.196;9.904;2024-01-15T13:59:10;4.33;;;1.17;;
13641;SDS011;6894;52.196;9.904;2024-01-15T14:01:39;1.87;;;0.87;;
13641;SDS011;6894;52.196;9.904;2024-01-15T14:04:06;5.63;;;1.40;;
13641;SDS011;6894;52.196;9.904;2024-01-15T14:06:32;7.10;;;1.40;;
13641;SDS011;6894;52.196;9.904;2024-01-15T14:08:59;5.40;;;1.00;;
13641;SDS011;6894;52.196;9.904;2024-01-15T14:11:26;3.60;;;1.40;;
13641;SDS011;6894;52.196;9.904;2024-01-15T14:13:53;3.70;;;1.87;;
13641;SDS011;6894;52.196;9.904;2024-01-15T14:16:19;5.13;;;1.40;;
13641;SDS011;6894;52.196;9.904;2024-01-15T14:18:48;5.63;;;1.57;;
13641;SDS011;6894;52.196;9.904;2024-01-15T14:21:14;2.17;;;1.07;;
13641;SDS011;6894;52.196;9.904;2024-01-15T14:23:41;13.90;;;6.10;;
13641;SDS011;6894;52.196;9.904;2024-01-15T14:26:08;4.13;;;1.30;;
13641;SDS011;6894;52.196;9.904;2024-01-15T14:28:35;2.63;;;1.00;;
13641;SDS011;6894;52.196;9.904;2024-01-15T14:31:01;4.23;;;1.80;;
13641;SDS011;6894;52.196;9.904;2024-01-15T14:33:30;10.83;;;1.53;;
13641;SDS011;6894;52.196;9.904;2024-01-15T14:35:58;3.90;;;1.20;;
13641;SDS011;6894;52.196;9.904;2024-01-15T14:38:25;5.03;;;1.70;;
13641;SDS011;6894;52.196;9.904;2024-01-15T14:40:52;3.53;;;1.50;;
13641;SDS011;6894;52.196;9.904;2024-01-15T14:43:19;5.10;;;1.30;;
13641;SDS011;6894;52.196;9.904;2024-01-15T14:45:46;2.40;;;1.30;;
13641;SDS011;6894;52.196;9.904;2024-01-15T14:48:13;3.60;;;1.60;;
13641;SDS011;6894;52.196;9.904;2024-01-15T14:50:39;3.30;;;1.83;;
13641;SDS011;6894;52.196;9.904;2024-01-15T14:53:08;1.43;;;1.10;;
13641;SDS011;6894;52.196;9.904;2024-01-15T14:55:34;8.23;;;2.40;;
13641;SDS011;6894;52.196;9.904;2024-01-15T14:58:01;3.13;;;1.80;;
13641;SDS011;6894;52.196;9.904;2024-01-15T15:00:28;5.33;;;2.10;;
13641;SDS011;6894;52.196;9.904;2024-01-15T15:02:55;4.10;;;2.10;;
13641;SDS011;6894;52.196;9.904;2024-01-15T15:05:22;2.63;;;1.27;;